Wetterdaten: Samstag, 29.11.2014
Datum Zeit Temp. A. Feuchte A. Luftdruck Regen Wind Richtung Richtung Sonnenschein ET UV Solar Taupunkt Windchill Windben Empfang
29.11.2014 00:00 0,4 C 81 % 1015,8 hPa 0,0 l/m 8,3 km/h (2 Bft) W-SW 252 0 min 0,000 mm 0,0 UV-I 0 W/m -2,5 C -1,5 C 15,8 km/h (3 Bft) 0,00 %
29.11.2014 00:15 0,4 C 81 % 1015,6 hPa 0,0 l/m 31,0 km/h (5 Bft) O 92 0 min 0,000 mm 0,0 UV-I 0 W/m -2,5 C -13,1 C 36,0 km/h (5 Bft) 0,00 %
29.11.2014 00:30 0,4 C 81 % 1015,6 hPa 0,0 l/m 16,6 km/h (3 Bft) O 96 0 min 0,000 mm 0,0 UV-I 0 W/m -2,5 C -7,4 C 24,1 km/h (4 Bft) 0,00 %
29.11.2014 00:45 0,4 C 81 % 1015,6 hPa 0,0 l/m 1,4 km/h (1 Bft) NO 37 0 min 0,000 mm 0,0 UV-I 0 W/m -2,5 C 0,4 C 4,0 km/h (1 Bft) 0,00 %
29.11.2014 01:00 0,4 C 81 % 1015,8 hPa 0,0 l/m 7,9 km/h (2 Bft) O 82 0 min 0,000 mm 0,0 UV-I 0 W/m -2,5 C -1,1 C 11,9 km/h (2 Bft) 0,00 %
29.11.2014 01:15 0,4 C 81 % 1015,8 hPa 0,0 l/m 13,0 km/h (3 Bft) O-NO 72 0 min 0,000 mm 0,0 UV-I 0 W/m -2,5 C -5,2 C 19,8 km/h (3 Bft) 0,00 %
29.11.2014 01:30 0,4 C 81 % 1015,6 hPa 0,0 l/m 5,8 km/h (2 Bft) SO 135 0 min 0,000 mm 0,0 UV-I 0 W/m -2,5 C 0,4 C 7,9 km/h (2 Bft) 0,00 %
29.11.2014 01:45 0,4 C 81 % 1015,7 hPa 0,0 l/m 10,8 km/h (2 Bft) O-SO 106 0 min 0,000 mm 0,0 UV-I 0 W/m -2,5 C -3,6 C 15,8 km/h (3 Bft) 0,00 %
29.11.2014 02:00 0,4 C 81 % 1015,9 hPa 0,0 l/m 17,3 km/h (3 Bft) O-SO 103 0 min 0,000 mm 0,0 UV-I 0 W/m -2,5 C -7,8 C 24,1 km/h (4 Bft) 0,00 %
29.11.2014 02:15 0,5 C 80 % 1015,7 hPa 0,0 l/m 12,2 km/h (2 Bft) O-NO 71 0 min 0,000 mm 0,0 UV-I 0 W/m -2,5 C -4,6 C 15,8 km/h (3 Bft) 0,00 %
29.11.2014 02:30 0,5 C 79 % 1015,8 hPa 0,0 l/m 7,2 km/h (2 Bft) O 88 0 min 0,000 mm 0,0 UV-I 0 W/m -2,7 C -0,3 C 15,8 km/h (3 Bft) 0,00 %
29.11.2014 02:45 0,5 C 79 % 1015,6 hPa 0,0 l/m 13,0 km/h (3 Bft) O-SO 104 0 min 0,000 mm 0,0 UV-I 0 W/m -2,7 C -5,1 C 19,8 km/h (3 Bft) 0,00 %
29.11.2014 03:00 0,5 C 79 % 1015,8 hPa 0,0 l/m 14,0 km/h (3 Bft) NO 51 0 min 0,000 mm 0,0 UV-I 0 W/m -2,7 C -5,8 C 24,1 km/h (4 Bft) 0,00 %
29.11.2014 03:15 0,5 C 79 % 1015,6 hPa 0,0 l/m 5,4 km/h (1 Bft) NO 48 0 min 0,000 mm 0,0 UV-I 0 W/m -2,7 C 0,5 C 11,9 km/h (2 Bft) 0,00 %
29.11.2014 03:30 0,5 C 79 % 1015,6 hPa 0,0 l/m 15,8 km/h (3 Bft) O 91 0 min 0,000 mm 0,0 UV-I 0 W/m -2,7 C -6,8 C 19,8 km/h (3 Bft) 0,00 %
29.11.2014 03:45 0,5 C 79 % 1015,5 hPa 0,0 l/m 14,4 km/h (3 Bft) O-SO 115 0 min 0,000 mm 0,0 UV-I 0 W/m -2,7 C -6,0 C 15,8 km/h (3 Bft) 0,00 %
29.11.2014 04:00 0,5 C 79 % 1015,6 hPa 0,0 l/m 2,9 km/h (1 Bft) NO 41 0 min 0,000 mm 0,0 UV-I 0 W/m -2,7 C 0,5 C 7,9 km/h (2 Bft) 0,00 %
29.11.2014 04:15 0,5 C 79 % 1015,6 hPa 0,0 l/m 4,7 km/h (1 Bft) O-SO 118 0 min 0,000 mm 0,0 UV-I 0 W/m -2,7 C 0,5 C 7,9 km/h (2 Bft) 0,00 %
29.11.2014 04:30 0,5 C 79 % 1015,6 hPa 0,0 l/m 10,4 km/h (2 Bft) O-SO 115 0 min 0,000 mm 0,0 UV-I 0 W/m -2,7 C -3,2 C 15,8 km/h (3 Bft) 0,00 %
29.11.2014 04:45 0,5 C 79 % 1015,5 hPa 0,0 l/m 14,4 km/h (3 Bft) O-NO 77 0 min 0,000 mm 0,0 UV-I 0 W/m -2,7 C -6,0 C 19,8 km/h (3 Bft) 0,00 %
29.11.2014 05:00 0,5 C 79 % 1015,6 hPa 0,0 l/m 15,8 km/h (3 Bft) O 98 0 min 0,000 mm 0,0 UV-I 0 W/m -2,7 C -6,8 C 24,1 km/h (4 Bft) 0,00 %
29.11.2014 05:15 0,5 C 79 % 1015,7 hPa 0,0 l/m 14,4 km/h (3 Bft) O 96 0 min 0,000 mm 0,0 UV-I 0 W/m -2,7 C -6,0 C 19,8 km/h (3 Bft) 0,00 %
29.11.2014 05:30 0,5 C 79 % 1016,0 hPa 0,0 l/m 21,6 km/h (4 Bft) O-NO 66 0 min 0,000 mm 0,0 UV-I 0 W/m -2,7 C -9,7 C 32,0 km/h (5 Bft) 0,00 %
29.11.2014 05:45 0,5 C 79 % 1015,7 hPa 0,0 l/m 15,5 km/h (3 Bft) O-NO 78 0 min 0,000 mm 0,0 UV-I 0 W/m -2,7 C -6,7 C 19,8 km/h (3 Bft) 0,00 %
29.11.2014 06:00 0,5 C 79 % 1015,9 hPa 0,0 l/m 14,4 km/h (3 Bft) O-SO 103 0 min 0,000 mm 0,0 UV-I 0 W/m -2,7 C -6,0 C 24,1 km/h (4 Bft) 0,00 %
29.11.2014 06:15 0,5 C 79 % 1015,8 hPa 0,0 l/m 13,0 km/h (3 Bft) S 172 0 min 0,000 mm 0,0 UV-I 0 W/m -2,7 C -5,1 C 19,8 km/h (3 Bft) 0,00 %
29.11.2014 06:30 0,5 C 79 % 1015,8 hPa 0,0 l/m 9,4 km/h (2 Bft) O 88 0 min 0,000 mm 0,0 UV-I 0 W/m -2,7 C -2,4 C 15,8 km/h (3 Bft) 0,00 %
29.11.2014 06:45 0,5 C 79 % 1016,1 hPa 0,0 l/m 15,8 km/h (3 Bft) O 95 0 min 0,000 mm 0,0 UV-I 0 W/m -2,7 C -6,8 C 19,8 km/h (3 Bft) 0,00 %
29.11.2014 07:00 0,5 C 79 % 1016,1 hPa 0,0 l/m 1,8 km/h (1 Bft) O-SO 109 0 min 0,000 mm 0,0 UV-I 0 W/m -2,7 C 0,5 C 4,0 km/h (1 Bft) 0,00 %
29.11.2014 07:15 0,5 C 79 % 1016,1 hPa 0,0 l/m 18,0 km/h (3 Bft) O 98 0 min 0,000 mm 0,0 UV-I 0 W/m -2,7 C -8,0 C 32,0 km/h (5 Bft) 0,00 %
29.11.2014 07:30 0,5 C 79 % 1016,1 hPa 0,0 l/m 20,5 km/h (4 Bft) O-SO 104 0 min 0,000 mm 0,0 UV-I 0 W/m -2,7 C -9,2 C 24,1 km/h (4 Bft) 0,00 %
29.11.2014 07:45 0,5 C 79 % 1016,4 hPa 0,0 l/m 18,4 km/h (3 Bft) O 99 0 min 0,000 mm 0,0 UV-I 0 W/m -2,7 C -8,2 C 19,8 km/h (3 Bft) 0,00 %
29.11.2014 08:00 0,5 C 79 % 1016,3 hPa 0,0 l/m 2,2 km/h (1 Bft) O-NO 73 0 min 0,000 mm 0,0 UV-I 0 W/m -2,7 C 0,5 C 7,9 km/h (2 Bft) 0,00 %
29.11.2014 08:15 0,5 C 79 % 1016,7 hPa 0,0 l/m 6,8 km/h (2 Bft) S 172 0 min 0,000 mm 0,0 UV-I 0 W/m -2,7 C 0,1 C 11,9 km/h (2 Bft) 0,00 %
29.11.2014 08:30 0,6 C 79 % 1016,6 hPa 0,0 l/m 9,7 km/h (2 Bft) O-NO 72 0 min 0,000 mm 0,0 UV-I 0 W/m -2,6 C -2,5 C 11,9 km/h (2 Bft) 0,00 %
29.11.2014 08:45 0,6 C 78 % 1016,7 hPa 0,0 l/m 11,5 km/h (2 Bft) O-SO 102 0 min 0,000 mm 0,0 UV-I 29 W/m -2,8 C -3,9 C 19,8 km/h (3 Bft) 0,00 %
29.11.2014 09:00 0,8 C 77 % 1016,7 hPa 0,0 l/m 7,9 km/h (2 Bft) S 187 0 min 0,000 mm 0,0 UV-I 25 W/m -2,8 C -0,7 C 11,9 km/h (2 Bft) 0,00 %
29.11.2014 09:15 0,7 C 78 % 1016,9 hPa 0,0 l/m 11,5 km/h (2 Bft) NO 56 0 min 0,000 mm 0,0 UV-I 25 W/m -2,7 C -3,8 C 19,8 km/h (3 Bft) 0,00 %
29.11.2014 09:30 0,7 C 78 % 1016,7 hPa 0,0 l/m 14,0 km/h (3 Bft) SO 124 0 min 0,000 mm 0,0 UV-I 31 W/m -2,7 C -5,5 C 19,8 km/h (3 Bft) 0,00 %
29.11.2014 09:45 0,7 C 78 % 1016,8 hPa 0,0 l/m 11,9 km/h (2 Bft) O-SO 109 0 min 0,000 mm 0,0 UV-I 56 W/m -2,7 C -4,1 C 15,8 km/h (3 Bft) 0,00 %
29.11.2014 10:00 0,8 C 77 % 1017,1 hPa 0,0 l/m 15,8 km/h (3 Bft) O 81 0 min 0,000 mm 0,0 UV-I 65 W/m -2,8 C -6,5 C 19,8 km/h (3 Bft) 0,00 %
29.11.2014 10:15 0,9 C 77 % 1017,0 hPa 0,0 l/m 15,5 km/h (3 Bft) SO 128 0 min 0,000 mm 0,0 UV-I 80 W/m -2,7 C -6,2 C 19,8 km/h (3 Bft) 0,00 %
29.11.2014 10:30 0,9 C 78 % 1017,2 hPa 0,0 l/m 23,0 km/h (4 Bft) O 96 0 min 0,000 mm 0,0 UV-I 63 W/m -2,5 C -9,7 C 28,1 km/h (4 Bft) 0,00 %
29.11.2014 10:45 0,9 C 78 % 1016,9 hPa 0,0 l/m 7,2 km/h (2 Bft) O-SO 120 0 min 0,000 mm 0,0 UV-I 63 W/m -2,5 C 0,1 C 7,9 km/h (2 Bft) 0,00 %
29.11.2014 11:00 0,9 C 78 % 1017,0 hPa 0,0 l/m 11,5 km/h (2 Bft) O-SO 121 0 min 0,000 mm 1,0 UV-I 103 W/m -2,5 C -3,6 C 15,8 km/h (3 Bft) 0,00 %
29.11.2014 11:15 1,0 C 77 % 1017,0 hPa 0,0 l/m 12,2 km/h (2 Bft) O-SO 110 0 min 0,000 mm 1,0 UV-I 130 W/m -2,6 C -4,0 C 15,8 km/h (3 Bft) 0,00 %
29.11.2014 11:30 1,1 C 76 % 1016,9 hPa 0,0 l/m 8,3 km/h (2 Bft) O 87 0 min 0,000 mm 1,0 UV-I 102 W/m -2,6 C -0,8 C 11,9 km/h (2 Bft) 0,00 %
29.11.2014 11:45 1,1 C 77 % 1017,0 hPa 0,0 l/m 14,4 km/h (3 Bft) O-SO 117 0 min 0,000 mm 1,0 UV-I 114 W/m -2,5 C -5,3 C 19,8 km/h (3 Bft) 0,00 %
29.11.2014 12:00 1,1 C 77 % 1016,8 hPa 0,0 l/m 9,7 km/h (2 Bft) O 93 0 min 0,000 mm 0,0 UV-I 80 W/m -2,5 C -2,0 C 11,9 km/h (2 Bft) 0,00 %
29.11.2014 12:15 1,1 C 77 % 1016,9 hPa 0,0 l/m 4,7 km/h (1 Bft) O-NO 72 0 min 0,000 mm 0,0 UV-I 91 W/m -2,5 C 1,1 C 7,9 km/h (2 Bft) 0,00 %
29.11.2014 12:30 1,1 C 77 % 1016,8 hPa 0,0 l/m 1,4 km/h (1 Bft) O-SO 107 0 min 0,000 mm 1,0 UV-I 99 W/m -2,5 C 1,1 C 4,0 km/h (1 Bft) 0,00 %
29.11.2014 12:45 1,2 C 77 % 1016,4 hPa 0,0 l/m 16,6 km/h (3 Bft) O 82 0 min 0,000 mm 1,0 UV-I 103 W/m -2,4 C -6,4 C 24,1 km/h (4 Bft) 0,00 %
29.11.2014 13:00 1,2 C 77 % 1016,5 hPa 0,0 l/m 4,3 km/h (1 Bft) NO 55 0 min 0,000 mm 0,0 UV-I 96 W/m -2,4 C 1,2 C 7,9 km/h (2 Bft) 0,00 %
29.11.2014 13:15 1,2 C 76 % 1016,3 hPa 0,0 l/m 13,0 km/h (3 Bft) O-SO 111 0 min 0,000 mm 0,0 UV-I 85 W/m -2,5 C -4,3 C 19,8 km/h (3 Bft) 0,00 %
29.11.2014 13:30 1,2 C 76 % 1016,4 hPa 0,0 l/m 11,9 km/h (2 Bft) O 92 0 min 0,000 mm 0,0 UV-I 90 W/m -2,5 C -3,5 C 15,8 km/h (3 Bft) 0,00 %
29.11.2014 13:45 1,1 C 76 % 1016,1 hPa 0,0 l/m 14,8 km/h (3 Bft) O-SO 103 0 min 0,000 mm 0,0 UV-I 66 W/m -2,6 C -5,5 C 19,8 km/h (3 Bft) 0,00 %
29.11.2014 14:00 1,2 C 76 % 1015,9 hPa 0,0 l/m 19,1 km/h (3 Bft) O 87 0 min 0,000 mm 0,0 UV-I 91 W/m -2,5 C -7,7 C 28,1 km/h (4 Bft) 0,00 %
29.11.2014 14:15 1,2 C 77 % 1015,9 hPa 0,0 l/m 13,3 km/h (3 Bft) O-SO 104 0 min 0,000 mm 0,0 UV-I 74 W/m -2,4 C -4,5 C 19,8 km/h (3 Bft) 0,00 %
29.11.2014 14:30 1,2 C 77 % 1015,9 hPa 0,0 l/m 10,8 km/h (2 Bft) O-SO 114 0 min 0,000 mm 0,0 UV-I 57 W/m -2,4 C -2,7 C 15,8 km/h (3 Bft) 0,00 %
29.11.2014 14:45 1,2 C 77 % 1016,0 hPa 0,0 l/m 8,3 km/h (2 Bft) O 100 0 min 0,000 mm 0,0 UV-I 59 W/m -2,4 C -0,7 C 15,8 km/h (3 Bft) 0,00 %
29.11.2014 15:00 1,2 C 77 % 1016,2 hPa 0,0 l/m 5,4 km/h (1 Bft) O-SO 108 0 min 0,000 mm 0,0 UV-I 26 W/m -2,4 C 1,2 C 7,9 km/h (2 Bft) 0,00 %
29.11.2014 15:15 1,2 C 77 % 1016,1 hPa 0,0 l/m 16,9 km/h (3 Bft) S-SO 152 0 min 0,000 mm 0,0 UV-I 6 W/m -2,4 C -6,6 C 24,1 km/h (4 Bft) 0,00 %
29.11.2014 15:30 1,2 C 77 % 1016,1 hPa 0,0 l/m 13,3 km/h (3 Bft) O-SO 115 0 min 0,000 mm 0,0 UV-I 0 W/m -2,4 C -4,5 C 24,1 km/h (4 Bft) 0,00 %
29.11.2014 15:45 1,1 C 77 % 1016,2 hPa 0,0 l/m 16,6 km/h (3 Bft) SO 131 0 min 0,000 mm 0,0 UV-I 0 W/m -2,5 C -6,5 C 24,1 km/h (4 Bft) 0,00 %
29.11.2014 16:00 1,1 C 77 % 1016,1 hPa 0,0 l/m 10,8 km/h (2 Bft) S 176 0 min 0,000 mm 0,0 UV-I 0 W/m -2,5 C -2,9 C 19,8 km/h (3 Bft) 0,00 %
29.11.2014 16:15 1,1 C 77 % 1016,1 hPa 0,0 l/m 13,0 km/h (3 Bft) O 80 0 min 0,000 mm 0,0 UV-I 0 W/m -2,5 C -4,4 C 19,8 km/h (3 Bft) 0,00 %
29.11.2014 16:30 1,1 C 77 % 1016,4 hPa 0,0 l/m 12,2 km/h (2 Bft) SO 125 0 min 0,000 mm 0,0 UV-I 0 W/m -2,5 C -3,9 C 19,8 km/h (3 Bft) 0,00 %
29.11.2014 16:45 1,1 C 77 % 1016,2 hPa 0,0 l/m 10,4 km/h (2 Bft) O-SO 111 0 min 0,000 mm 0,0 UV-I 0 W/m -2,5 C -2,6 C 15,8 km/h (3 Bft) 0,00 %
29.11.2014 17:00 1,1 C 77 % 1016,4 hPa 0,0 l/m 4,3 km/h (1 Bft) NO 51 0 min 0,000 mm 0,0 UV-I 0 W/m -2,5 C 1,1 C 7,9 km/h (2 Bft) 0,00 %
29.11.2014 17:15 1,2 C 77 % 1016,3 hPa 0,0 l/m 18,4 km/h (3 Bft) O-NO 62 0 min 0,000 mm 0,0 UV-I 0 W/m -2,4 C -7,3 C 32,0 km/h (5 Bft) 0,00 %
29.11.2014 17:30 1,2 C 77 % 1016,4 hPa 0,0 l/m 7,2 km/h (2 Bft) O 101 0 min 0,000 mm 0,0 UV-I 0 W/m -2,4 C 0,4 C 11,9 km/h (2 Bft) 0,00 %
29.11.2014 17:45 1,2 C 77 % 1016,6 hPa 0,0 l/m 7,2 km/h (2 Bft) O 94 0 min 0,000 mm 0,0 UV-I 0 W/m -2,4 C 0,4 C 11,9 km/h (2 Bft) 0,00 %
29.11.2014 18:00 1,1 C 76 % 1016,7 hPa 0,0 l/m 10,8 km/h (2 Bft) O 83 0 min 0,000 mm 0,0 UV-I 0 W/m -2,6 C -2,9 C 15,8 km/h (3 Bft) 0,00 %
29.11.2014 18:15 1,2 C 76 % 1016,6 hPa 0,0 l/m 13,3 km/h (3 Bft) O 90 0 min 0,000 mm 0,0 UV-I 0 W/m -2,5 C -4,5 C 24,1 km/h (4 Bft) 0,00 %
29.11.2014 18:30 1,2 C 77 % 1016,6 hPa 0,0 l/m 15,8 km/h (3 Bft) O 97 0 min 0,000 mm 0,0 UV-I 0 W/m -2,4 C -6,0 C 24,1 km/h (4 Bft) 0,00 %
29.11.2014 18:45 1,2 C 77 % 1016,7 hPa 0,0 l/m 15,8 km/h (3 Bft) O-NO 72 0 min 0,000 mm 0,0 UV-I 0 W/m -2,4 C -6,0 C 19,8 km/h (3 Bft) 0,00 %
29.11.2014 19:00 1,2 C 77 % 1016,7 hPa 0,0 l/m 9,0 km/h (2 Bft) O 100 0 min 0,000 mm 0,0 UV-I 0 W/m -2,4 C -1,3 C 15,8 km/h (3 Bft) 0,00 %
29.11.2014 19:15 1,2 C 77 % 1016,9 hPa 0,0 l/m 10,4 km/h (2 Bft) S-SO 149 0 min 0,000 mm 0,0 UV-I 0 W/m -2,4 C -2,4 C 15,8 km/h (3 Bft) 0,00 %
29.11.2014 19:30 1,2 C 76 % 1016,9 hPa 0,0 l/m 12,2 km/h (2 Bft) SO 130 0 min 0,000 mm 0,0 UV-I 0 W/m -2,5 C -3,8 C 15,8 km/h (3 Bft) 0,00 %
29.11.2014 19:45 1,3 C 76 % 1016,8 hPa 0,0 l/m 22,0 km/h (4 Bft) O-SO 105 0 min 0,000 mm 0,0 UV-I 0 W/m -2,5 C -8,8 C 24,1 km/h (4 Bft) 0,00 %
29.11.2014 20:00 1,3 C 76 % 1016,7 hPa 0,0 l/m 10,4 km/h (2 Bft) SW 232 0 min 0,000 mm 0,0 UV-I 0 W/m -2,5 C -2,3 C 15,8 km/h (3 Bft) 0,00 %
29.11.2014 20:15 1,3 C 76 % 1016,7 hPa 0,0 l/m 18,4 km/h (3 Bft) O-SO 118 0 min 0,000 mm 0,0 UV-I 0 W/m -2,5 C -7,2 C 28,1 km/h (4 Bft) 0,00 %
29.11.2014 20:30 1,3 C 76 % 1016,6 hPa 0,0 l/m 13,3 km/h (3 Bft) O 80 0 min 0,000 mm 0,0 UV-I 0 W/m -2,5 C -4,4 C 19,8 km/h (3 Bft) 0,00 %
29.11.2014 20:45 1,2 C 76 % 1016,5 hPa 0,0 l/m 18,0 km/h (3 Bft) SO 129 0 min 0,000 mm 0,0 UV-I 0 W/m -2,5 C -7,1 C 28,1 km/h (4 Bft) 0,00 %
29.11.2014 21:00 1,2 C 77 % 1016,4 hPa 0,0 l/m 13,0 km/h (3 Bft) O 91 0 min 0,000 mm 0,0 UV-I 0 W/m -2,4 C -4,3 C 15,8 km/h (3 Bft) 0,00 %
29.11.2014 21:15 1,2 C 76 % 1016,6 hPa 0,0 l/m 4,0 km/h (1 Bft) O 101 0 min 0,000 mm 0,0 UV-I 0 W/m -2,5 C 1,2 C 4,0 km/h (1 Bft) 0,00 %
29.11.2014 21:30 1,2 C 77 % 1016,5 hPa 0,0 l/m 6,5 km/h (2 Bft) SO 125 0 min 0,000 mm 0,0 UV-I 0 W/m -2,4 C 1,1 C 15,8 km/h (3 Bft) 0,00 %
29.11.2014 21:45 1,2 C 77 % 1016,4 hPa 0,0 l/m 12,2 km/h (2 Bft) O-NO 70 0 min 0,000 mm 0,0 UV-I 0 W/m -2,4 C -3,8 C 19,8 km/h (3 Bft) 0,00 %
29.11.2014 22:00 1,2 C 77 % 1016,4 hPa 0,0 l/m 12,2 km/h (2 Bft) O 88 0 min 0,000 mm 0,0 UV-I 0 W/m -2,4 C -3,8 C 15,8 km/h (3 Bft) 0,00 %
29.11.2014 22:15 1,2 C 77 % 1016,4 hPa 0,0 l/m 9,0 km/h (2 Bft) O 86 0 min 0,000 mm 0,0 UV-I 0 W/m -2,4 C -1,3 C 11,9 km/h (2 Bft) 0,00 %
29.11.2014 22:30 1,2 C 78 % 1016,1 hPa 0,0 l/m 5,4 km/h (1 Bft) O 81 0 min 0,000 mm 0,0 UV-I 0 W/m -2,2 C 1,2 C 11,9 km/h (2 Bft) 0,00 %
29.11.2014 22:45 1,2 C 78 % 1016,0 hPa 0,0 l/m 15,8 km/h (3 Bft) O-NO 78 0 min 0,000 mm 0,0 UV-I 0 W/m -2,2 C -6,0 C 19,8 km/h (3 Bft) 0,00 %
29.11.2014 23:00 1,2 C 78 % 1016,2 hPa 0,0 l/m 14,8 km/h (3 Bft) O 101 0 min 0,000 mm 0,0 UV-I 0 W/m -2,2 C -5,4 C 19,8 km/h (3 Bft) 0,00 %
29.11.2014 23:15 1,1 C 79 % 1016,1 hPa 0,0 l/m 23,4 km/h (4 Bft) O-SO 121 0 min 0,000 mm 0,0 UV-I 0 W/m -2,1 C -9,6 C 28,1 km/h (4 Bft) 0,00 %
29.11.2014 23:30 1,1 C 79 % 1016,0 hPa 0,0 l/m 8,3 km/h (2 Bft) O-SO 102 0 min 0,000 mm 0,0 UV-I 0 W/m -2,1 C -0,8 C 15,8 km/h (3 Bft) 0,00 %
29.11.2014 23:45 1,0 C 79 % 1015,9 hPa 0,0 l/m 4,7 km/h (1 Bft) O 87 0 min 0,000 mm 0,0 UV-I 0 W/m -2,2 C 1,0 C 11,9 km/h (2 Bft) 0,00 %
_ Min-Zeit 00:00 11:30 03:45 - 00:45 - - - - - - 08:45 00:15 00:45 00:00
Minimum _ 0,4 C 76 % 1015,5 hPa - 1,4 km/h (1 Bft) - - - - - - -2,8 C -13,1 C 4,0 km/h (1 Bft) 0,00 %
_ Max-Zeit 19:45 00:00 10:30 00:00 00:15 - - 00:00 00:00 11:00 11:15 23:15 13:00 00:15 00:00
Maximum _ 1,3 C 81 % 1017,2 hPa 0,0 l/m 31,0 km/h
O (5 Bft)
- - 0 min 0,000 mm 1,0 UV-I 130 W/m -2,1 C 1,2 C 36,0 km/h
O (5 Bft)
0,00 %
Durchschnitt _ 0,9 C 78 % 1016,3 hPa #0,0 l/m 12,0 km/h (2 Bft) O - #0 min. #0,000 mm 1,0 UV-I 71 W/m -2,5 C -3,8 C 17,7 km/h (3 Bft) 0,00 %